sensor_id;sensor_type;location;lat;lon;timestamp;temperature;humidity
77467;DHT22;66564;42.482;25.548;2023-12-07T00:01:08;6.61;81.58
77467;DHT22;66564;42.482;25.548;2023-12-07T00:03:34;6.62;81.95
77467;DHT22;66564;42.482;25.548;2023-12-07T00:06:00;6.67;81.95
77467;DHT22;66564;42.482;25.548;2023-12-07T00:08:25;6.64;82.04
77467;DHT22;66564;42.482;25.548;2023-12-07T00:10:50;6.62;82.05
77467;DHT22;66564;42.482;25.548;2023-12-07T00:13:16;6.61;82.10
77467;DHT22;66564;42.482;25.548;2023-12-07T00:15:42;6.65;82.09
77467;DHT22;66564;42.482;25.548;2023-12-07T00:18:08;6.62;81.99
77467;DHT22;66564;42.482;25.548;2023-12-07T00:20:33;6.62;82.04
77467;DHT22;66564;42.482;25.548;2023-12-07T00:22:59;6.64;82.09
77467;DHT22;66564;42.482;25.548;2023-12-07T00:25:24;6.59;81.98
77467;DHT22;66564;42.482;25.548;2023-12-07T00:27:50;6.56;82.16
77467;DHT22;66564;42.482;25.548;2023-12-07T00:30:16;6.53;82.52
77467;DHT22;66564;42.482;25.548;2023-12-07T00:32:41;6.58;82.27
77467;DHT22;66564;42.482;25.548;2023-12-07T00:35:09;6.58;82.24
77467;DHT22;66564;42.482;25.548;2023-12-07T00:37:35;6.55;82.29
77467;DHT22;66564;42.482;25.548;2023-12-07T00:40:04;6.51;82.46
77467;DHT22;66564;42.482;25.548;2023-12-07T00:42:30;6.49;82.83
77467;DHT22;66564;42.482;25.548;2023-12-07T00:44:56;6.48;83.12
77467;DHT22;66564;42.482;25.548;2023-12-07T00:47:21;6.49;83.19
77467;DHT22;66564;42.482;25.548;2023-12-07T00:49:47;6.51;83.19
77467;DHT22;66564;42.482;25.548;2023-12-07T00:52:13;6.51;83.10
77467;DHT22;66564;42.482;25.548;2023-12-07T00:54:39;6.51;82.71
77467;DHT22;66564;42.482;25.548;2023-12-07T00:57:05;6.53;82.48
77467;DHT22;66564;42.482;25.548;2023-12-07T00:59:30;6.45;82.79
77467;DHT22;66564;42.482;25.548;2023-12-07T01:02:06;6.46;82.77
77467;DHT22;66564;42.482;25.548;2023-12-07T01:04:32;6.45;82.82
77467;DHT22;66564;42.482;25.548;2023-12-07T01:06:57;6.48;83.03
77467;DHT22;66564;42.482;25.548;2023-12-07T01:09:23;6.48;83.23
77467;DHT22;66564;42.482;25.548;2023-12-07T01:11:49;6.51;83.12
77467;DHT22;66564;42.482;25.548;2023-12-07T01:14:15;6.53;83.06
77467;DHT22;66564;42.482;25.548;2023-12-07T01:16:41;6.52;83.05
77467;DHT22;66564;42.482;25.548;2023-12-07T01:19:07;6.53;83.08
77467;DHT22;66564;42.482;25.548;2023-12-07T01:21:33;6.56;83.05
77467;DHT22;66564;42.482;25.548;2023-12-07T01:23:58;6.51;83.04
77467;DHT22;66564;42.482;25.548;2023-12-07T01:26:24;6.55;83.00
77467;DHT22;66564;42.482;25.548;2023-12-07T01:28:49;6.55;82.91
77467;DHT22;66564;42.482;25.548;2023-12-07T01:31:15;6.56;82.96
77467;DHT22;66564;42.482;25.548;2023-12-07T01:33:42;6.64;82.45
77467;DHT22;66564;42.482;25.548;2023-12-07T01:36:08;6.62;82.60
77467;DHT22;66564;42.482;25.548;2023-12-07T01:38:33;6.62;82.74
77467;DHT22;66564;42.482;25.548;2023-12-07T01:40:59;6.61;82.78
77467;DHT22;66564;42.482;25.548;2023-12-07T01:43:24;6.62;82.81
77467;DHT22;66564;42.482;25.548;2023-12-07T01:45:51;6.64;82.94
77467;DHT22;66564;42.482;25.548;2023-12-07T01:48:20;6.67;82.54
77467;DHT22;66564;42.482;25.548;2023-12-07T01:50:46;6.67;82.37
77467;DHT22;66564;42.482;25.548;2023-12-07T01:53:12;6.67;82.40
77467;DHT22;66564;42.482;25.548;2023-12-07T01:55:38;6.69;82.19
77467;DHT22;66564;42.482;25.548;2023-12-07T01:58:04;6.67;82.40
77467;DHT22;66564;42.482;25.548;2023-12-07T02:00:33;6.59;82.72
77467;DHT22;66564;42.482;25.548;2023-12-07T02:03:02;6.65;82.53
77467;DHT22;66564;42.482;25.548;2023-12-07T02:05:29;6.62;82.46
77467;DHT22;66564;42.482;25.548;2023-12-07T02:07:55;6.67;82.27
77467;DHT22;66564;42.482;25.548;2023-12-07T02:10:20;6.67;82.23
77467;DHT22;66564;42.482;25.548;2023-12-07T02:12:47;6.65;82.34
77467;DHT22;66564;42.482;25.548;2023-12-07T02:15:12;6.65;82.41
77467;DHT22;66564;42.482;25.548;2023-12-07T02:20:20;6.65;82.48
77467;DHT22;66564;42.482;25.548;2023-12-07T02:22:49;6.59;82.73
77467;DHT22;66564;42.482;25.548;2023-12-07T02:25:18;6.64;82.79
77467;DHT22;66564;42.482;25.548;2023-12-07T02:27:45;6.68;82.79
77467;DHT22;66564;42.482;25.548;2023-12-07T02:30:14;6.67;82.81
77467;DHT22;66564;42.482;25.548;2023-12-07T02:32:42;6.61;82.83
77467;DHT22;66564;42.482;25.548;2023-12-07T02:35:09;6.65;82.62
77467;DHT22;66564;42.482;25.548;2023-12-07T02:37:51;6.64;82.81
77467;DHT22;66564;42.482;25.548;2023-12-07T02:40:19;6.65;82.80
77467;DHT22;66564;42.482;25.548;2023-12-07T02:42:46;6.68;82.72
77467;DHT22;66564;42.482;25.548;2023-12-07T02:45:12;6.65;82.72
77467;DHT22;66564;42.482;25.548;2023-12-07T02:47:38;6.68;82.70
77467;DHT22;66564;42.482;25.548;2023-12-07T02:50:05;6.65;82.87
77467;DHT22;66564;42.482;25.548;2023-12-07T02:52:31;6.68;82.80
77467;DHT22;66564;42.482;25.548;2023-12-07T02:54:57;6.49;82.81
77467;DHT22;66564;42.482;25.548;2023-12-07T02:57:22;6.59;82.30
77467;DHT22;66564;42.482;25.548;2023-12-07T02:59:48;6.55;82.34
77467;DHT22;66564;42.482;25.548;2023-12-07T03:02:14;6.58;82.28
77467;DHT22;66564;42.482;25.548;2023-12-07T03:04:39;6.51;82.66
77467;DHT22;66564;42.482;25.548;2023-12-07T03:07:05;6.51;82.85
77467;DHT22;66564;42.482;25.548;2023-12-07T03:09:30;6.52;83.12
77467;DHT22;66564;42.482;25.548;2023-12-07T03:11:56;6.55;83.05
77467;DHT22;66564;42.482;25.548;2023-12-07T03:14:22;6.55;82.86
77467;DHT22;66564;42.482;25.548;2023-12-07T03:16:47;6.56;82.67
77467;DHT22;66564;42.482;25.548;2023-12-07T03:19:13;6.58;82.42
77467;DHT22;66564;42.482;25.548;2023-12-07T03:21:39;6.55;82.25
77467;DHT22;66564;42.482;25.548;2023-12-07T03:24:09;6.55;82.20
77467;DHT22;66564;42.482;25.548;2023-12-07T03:26:35;6.52;82.04
77467;DHT22;66564;42.482;25.548;2023-12-07T03:29:02;6.49;82.12
77467;DHT22;66564;42.482;25.548;2023-12-07T03:31:28;6.48;82.17
77467;DHT22;66564;42.482;25.548;2023-12-07T03:33:54;6.45;81.82
77467;DHT22;66564;42.482;25.548;2023-12-07T03:36:20;6.46;81.68
77467;DHT22;66564;42.482;25.548;2023-12-07T03:38:47;6.46;81.61
77467;DHT22;66564;42.482;25.548;2023-12-07T03:41:13;6.42;81.62
77467;DHT22;66564;42.482;25.548;2023-12-07T03:43:38;6.44;81.51
77467;DHT22;66564;42.482;25.548;2023-12-07T03:46:04;6.42;81.46
77467;DHT22;66564;42.482;25.548;2023-12-07T03:48:30;6.42;81.40
77467;DHT22;66564;42.482;25.548;2023-12-07T03:50:56;6.42;81.29
77467;DHT22;66564;42.482;25.548;2023-12-07T03:53:21;6.41;81.20
77467;DHT22;66564;42.482;25.548;2023-12-07T03:55:47;6.41;81.20
77467;DHT22;66564;42.482;25.548;2023-12-07T03:58:13;6.37;81.42
77467;DHT22;66564;42.482;25.548;2023-12-07T04:00:39;6.31;81.61
77467;DHT22;66564;42.482;25.548;2023-12-07T04:03:04;6.27;81.60
77467;DHT22;66564;42.482;25.548;2023-12-07T04:05:30;6.22;81.38
77467;DHT22;66564;42.482;25.548;2023-12-07T04:07:56;6.20;80.87
77467;DHT22;66564;42.482;25.548;2023-12-07T04:10:21;6.13;81.11
77467;DHT22;66564;42.482;25.548;2023-12-07T04:12:47;6.01;81.48
77467;DHT22;66564;42.482;25.548;2023-12-07T04:15:12;6.01;81.96
77467;DHT22;66564;42.482;25.548;2023-12-07T04:17:37;6.08;81.64
77467;DHT22;66564;42.482;25.548;2023-12-07T04:20:03;6.00;81.76
77467;DHT22;66564;42.482;25.548;2023-12-07T04:22:30;5.96;82.00
77467;DHT22;66564;42.482;25.548;2023-12-07T04:24:55;5.94;82.12
77467;DHT22;66564;42.482;25.548;2023-12-07T04:27:21;5.97;82.25
77467;DHT22;66564;42.482;25.548;2023-12-07T04:29:46;5.97;82.18
77467;DHT22;66564;42.482;25.548;2023-12-07T04:32:12;6.00;82.12
77467;DHT22;66564;42.482;25.548;2023-12-07T04:34:37;5.96;82.26
77467;DHT22;66564;42.482;25.548;2023-12-07T04:37:03;5.98;82.08
77467;DHT22;66564;42.482;25.548;2023-12-07T04:39:28;5.97;82.26
77467;DHT22;66564;42.482;25.548;2023-12-07T04:41:55;5.97;82.08
77467;DHT22;66564;42.482;25.548;2023-12-07T04:44:20;6.00;81.73
77467;DHT22;66564;42.482;25.548;2023-12-07T04:46:46;6.00;81.62
77467;DHT22;66564;42.482;25.548;2023-12-07T04:49:12;5.96;81.63
77467;DHT22;66564;42.482;25.548;2023-12-07T04:51:38;5.96;81.68
77467;DHT22;66564;42.482;25.548;2023-12-07T04:54:03;5.91;81.53
77467;DHT22;66564;42.482;25.548;2023-12-07T04:56:29;5.91;81.50
77467;DHT22;66564;42.482;25.548;2023-12-07T04:58:54;5.87;81.35
77467;DHT22;66564;42.482;25.548;2023-12-07T05:01:20;5.90;81.30
77467;DHT22;66564;42.482;25.548;2023-12-07T05:03:45;5.93;81.21
77467;DHT22;66564;42.482;25.548;2023-12-07T05:06:11;5.93;81.03
77467;DHT22;66564;42.482;25.548;2023-12-07T05:08:38;5.91;80.87
77467;DHT22;66564;42.482;25.548;2023-12-07T05:11:04;5.93;80.58
77467;DHT22;66564;42.482;25.548;2023-12-07T05:13:30;5.90;80.44
77467;DHT22;66564;42.482;25.548;2023-12-07T05:15:55;5.91;80.40
77467;DHT22;66564;42.482;25.548;2023-12-07T05:18:21;5.93;80.31
77467;DHT22;66564;42.482;25.548;2023-12-07T05:20:46;5.89;80.31
77467;DHT22;66564;42.482;25.548;2023-12-07T05:23:12;5.83;80.39
77467;DHT22;66564;42.482;25.548;2023-12-07T05:25:37;5.84;80.25
77467;DHT22;66564;42.482;25.548;2023-12-07T05:28:03;5.86;79.84
77467;DHT22;66564;42.482;25.548;2023-12-07T05:30:29;5.91;79.43
77467;DHT22;66564;42.482;25.548;2023-12-07T05:32:55;5.93;79.51
77467;DHT22;66564;42.482;25.548;2023-12-07T05:35:20;5.93;79.01
77467;DHT22;66564;42.482;25.548;2023-12-07T05:37:46;5.91;79.64
77467;DHT22;66564;42.482;25.548;2023-12-07T05:40:12;5.91;79.64
77467;DHT22;66564;42.482;25.548;2023-12-07T05:42:38;5.86;79.56
77467;DHT22;66564;42.482;25.548;2023-12-07T05:45:04;5.84;79.89
77467;DHT22;66564;42.482;25.548;2023-12-07T05:47:31;5.74;79.86
77467;DHT22;66564;42.482;25.548;2023-12-07T05:49:57;5.73;79.95
77467;DHT22;66564;42.482;25.548;2023-12-07T05:52:25;5.74;80.02
77467;DHT22;66564;42.482;25.548;2023-12-07T05:54:50;5.73;80.27
77467;DHT22;66564;42.482;25.548;2023-12-07T05:57:16;5.76;80.21
77467;DHT22;66564;42.482;25.548;2023-12-07T05:59:41;5.73;80.26
77467;DHT22;66564;42.482;25.548;2023-12-07T06:02:08;5.73;80.39
77467;DHT22;66564;42.482;25.548;2023-12-07T06:04:34;5.77;80.34
77467;DHT22;66564;42.482;25.548;2023-12-07T06:06:59;5.78;80.34
77467;DHT22;66564;42.482;25.548;2023-12-07T06:09:25;5.80;80.08
77467;DHT22;66564;42.482;25.548;2023-12-07T06:11:50;5.81;80.00
77467;DHT22;66564;42.482;25.548;2023-12-07T06:14:16;5.84;80.17
77467;DHT22;66564;42.482;25.548;2023-12-07T06:16:42;5.89;79.87
77467;DHT22;66564;42.482;25.548;2023-12-07T06:19:07;5.90;79.62
77467;DHT22;66564;42.482;25.548;2023-12-07T06:21:33;5.90;79.44
77467;DHT22;66564;42.482;25.548;2023-12-07T06:23:59;5.91;79.33
77467;DHT22;66564;42.482;25.548;2023-12-07T06:26:25;5.89;79.28
77467;DHT22;66564;42.482;25.548;2023-12-07T06:28:51;5.87;79.76
77467;DHT22;66564;42.482;25.548;2023-12-07T06:31:16;5.97;80.17
77467;DHT22;66564;42.482;25.548;2023-12-07T06:33:46;5.97;80.55
77467;DHT22;66564;42.482;25.548;2023-12-07T06:36:18;6.00;80.23
77467;DHT22;66564;42.482;25.548;2023-12-07T06:38:44;6.03;80.28
77467;DHT22;66564;42.482;25.548;2023-12-07T06:41:10;6.06;80.38
77467;DHT22;66564;42.482;25.548;2023-12-07T06:43:35;5.96;79.78
77467;DHT22;66564;42.482;25.548;2023-12-07T06:46:01;6.00;80.22
77467;DHT22;66564;42.482;25.548;2023-12-07T06:48:26;6.06;80.31
77467;DHT22;66564;42.482;25.548;2023-12-07T06:50:52;6.10;80.68
77467;DHT22;66564;42.482;25.548;2023-12-07T06:53:17;6.17;80.33
77467;DHT22;66564;42.482;25.548;2023-12-07T06:55:44;6.21;80.16
77467;DHT22;66564;42.482;25.548;2023-12-07T06:58:09;6.21;80.66
77467;DHT22;66564;42.482;25.548;2023-12-07T07:00:35;6.22;80.96
77467;DHT22;66564;42.482;25.548;2023-12-07T07:03:01;6.24;81.10
77467;DHT22;66564;42.482;25.548;2023-12-07T07:05:27;6.28;80.96
77467;DHT22;66564;42.482;25.548;2023-12-07T07:07:52;6.38;80.84
77467;DHT22;66564;42.482;25.548;2023-12-07T07:10:18;6.37;80.18
77467;DHT22;66564;42.482;25.548;2023-12-07T07:12:43;6.41;79.66
77467;DHT22;66564;42.482;25.548;2023-12-07T07:15:09;6.41;80.10
77467;DHT22;66564;42.482;25.548;2023-12-07T07:17:35;6.58;79.75
77467;DHT22;66564;42.482;25.548;2023-12-07T07:20:01;6.62;79.56
77467;DHT22;66564;42.482;25.548;2023-12-07T07:22:26;6.68;79.61
77467;DHT22;66564;42.482;25.548;2023-12-07T07:24:51;6.68;79.55
77467;DHT22;66564;42.482;25.548;2023-12-07T07:27:17;6.78;79.61
77467;DHT22;66564;42.482;25.548;2023-12-07T07:29:43;6.86;80.18
77467;DHT22;66564;42.482;25.548;2023-12-07T07:32:09;6.91;79.48
77467;DHT22;66564;42.482;25.548;2023-12-07T07:34:35;6.68;78.95
77467;DHT22;66564;42.482;25.548;2023-12-07T07:37:01;6.83;80.05
77467;DHT22;66564;42.482;25.548;2023-12-07T07:39:27;6.99;80.27
77467;DHT22;66564;42.482;25.548;2023-12-07T07:41:52;7.07;79.10
77467;DHT22;66564;42.482;25.548;2023-12-07T07:44:18;7.23;78.76
77467;DHT22;66564;42.482;25.548;2023-12-07T07:46:43;7.34;79.46
77467;DHT22;66564;42.482;25.548;2023-12-07T07:49:09;7.06;79.51
77467;DHT22;66564;42.482;25.548;2023-12-07T07:51:34;7.31;78.58
77467;DHT22;66564;42.482;25.548;2023-12-07T07:54:00;7.51;78.28
77467;DHT22;66564;42.482;25.548;2023-12-07T07:56:25;7.49;78.70
77467;DHT22;66564;42.482;25.548;2023-12-07T07:58:51;7.39;78.50
77467;DHT22;66564;42.482;25.548;2023-12-07T08:01:16;7.24;79.57
77467;DHT22;66564;42.482;25.548;2023-12-07T08:03:42;7.49;79.55
77467;DHT22;66564;42.482;25.548;2023-12-07T08:06:07;7.31;78.06
77467;DHT22;66564;42.482;25.548;2023-12-07T08:08:34;6.79;79.84
77467;DHT22;66564;42.482;25.548;2023-12-07T08:10:59;6.99;79.89
77467;DHT22;66564;42.482;25.548;2023-12-07T08:13:26;6.95;79.83
77467;DHT22;66564;42.482;25.548;2023-12-07T08:15:53;7.03;79.76
77467;DHT22;66564;42.482;25.548;2023-12-07T08:18:18;7.20;79.41
77467;DHT22;66564;42.482;25.548;2023-12-07T08:20:44;7.33;79.71
77467;DHT22;66564;42.482;25.548;2023-12-07T08:23:09;7.50;80.06
77467;DHT22;66564;42.482;25.548;2023-12-07T08:25:38;7.63;79.10
77467;DHT22;66564;42.482;25.548;2023-12-07T08:28:03;7.71;79.15
77467;DHT22;66564;42.482;25.548;2023-12-07T08:30:29;7.88;78.91
77467;DHT22;66564;42.482;25.548;2023-12-07T08:32:55;7.98;78.70
77467;DHT22;66564;42.482;25.548;2023-12-07T08:35:20;7.99;78.28
77467;DHT22;66564;42.482;25.548;2023-12-07T08:37:47;8.11;77.71
77467;DHT22;66564;42.482;25.548;2023-12-07T08:40:14;8.18;76.66
77467;DHT22;66564;42.482;25.548;2023-12-07T08:42:43;7.77;77.95
77467;DHT22;66564;42.482;25.548;2023-12-07T08:45:09;7.82;78.06
77467;DHT22;66564;42.482;25.548;2023-12-07T08:47:35;7.92;78.01
77467;DHT22;66564;42.482;25.548;2023-12-07T08:50:03;7.97;77.24
77467;DHT22;66564;42.482;25.548;2023-12-07T08:52:28;8.09;77.26
77467;DHT22;66564;42.482;25.548;2023-12-07T08:54:54;8.20;77.48
77467;DHT22;66564;42.482;25.548;2023-12-07T08:57:19;8.29;77.47
77467;DHT22;66564;42.482;25.548;2023-12-07T08:59:45;8.38;77.11
77467;DHT22;66564;42.482;25.548;2023-12-07T09:02:10;8.44;77.19
77467;DHT22;66564;42.482;25.548;2023-12-07T09:04:37;8.55;77.38
77467;DHT22;66564;42.482;25.548;2023-12-07T09:07:04;8.63;77.09
77467;DHT22;66564;42.482;25.548;2023-12-07T09:09:29;8.72;76.96
77467;DHT22;66564;42.482;25.548;2023-12-07T09:11:55;8.70;77.25
77467;DHT22;66564;42.482;25.548;2023-12-07T09:14:20;8.45;77.20
77467;DHT22;66564;42.482;25.548;2023-12-07T09:16:46;8.53;77.05
77467;DHT22;66564;42.482;25.548;2023-12-07T09:19:12;8.67;76.67
77467;DHT22;66564;42.482;25.548;2023-12-07T09:21:39;8.80;77.42
77467;DHT22;66564;42.482;25.548;2023-12-07T09:24:05;9.00;77.29
77467;DHT22;66564;42.482;25.548;2023-12-07T09:26:31;8.87;76.19
77467;DHT22;66564;42.482;25.548;2023-12-07T09:29:06;8.79;77.02
77467;DHT22;66564;42.482;25.548;2023-12-07T09:31:31;8.97;76.10
77467;DHT22;66564;42.482;25.548;2023-12-07T09:33:57;9.10;75.71
77467;DHT22;66564;42.482;25.548;2023-12-07T09:36:22;9.35;79.15
77467;DHT22;66564;42.482;25.548;2023-12-07T09:38:49;9.31;75.30
77467;DHT22;66564;42.482;25.548;2023-12-07T09:41:14;9.21;74.97
77467;DHT22;66564;42.482;25.548;2023-12-07T09:43:40;9.28;74.66
77467;DHT22;66564;42.482;25.548;2023-12-07T09:46:06;9.10;74.68
77467;DHT22;66564;42.482;25.548;2023-12-07T09:48:32;9.03;74.79
77467;DHT22;66564;42.482;25.548;2023-12-07T09:50:59;9.16;73.97
77467;DHT22;66564;42.482;25.548;2023-12-07T09:53:27;9.28;74.32
77467;DHT22;66564;42.482;25.548;2023-12-07T09:55:54;9.28;73.33
77467;DHT22;66564;42.482;25.548;2023-12-07T09:58:19;9.31;73.80
77467;DHT22;66564;42.482;25.548;2023-12-07T10:00:47;9.31;73.88
77467;DHT22;66564;42.482;25.548;2023-12-07T10:03:20;9.38;73.27
77467;DHT22;66564;42.482;25.548;2023-12-07T10:06:00;9.40;73.22
77467;DHT22;66564;42.482;25.548;2023-12-07T10:08:31;9.45;73.13
77467;DHT22;66564;42.482;25.548;2023-12-07T10:13:33;9.40;72.77
77467;DHT22;66564;42.482;25.548;2023-12-07T10:16:10;9.28;72.87
77467;DHT22;66564;42.482;25.548;2023-12-07T10:18:36;9.30;72.39
77467;DHT22;66564;42.482;25.548;2023-12-07T10:21:02;9.40;73.03
77467;DHT22;66564;42.482;25.548;2023-12-07T10:23:29;9.47;73.48
77467;DHT22;66564;42.482;25.548;2023-12-07T10:25:58;9.54;73.23
77467;DHT22;66564;42.482;25.548;2023-12-07T10:28:24;9.48;72.69
77467;DHT22;66564;42.482;25.548;2023-12-07T10:30:50;9.19;72.78
77467;DHT22;66564;42.482;25.548;2023-12-07T10:33:16;9.37;72.91
77467;DHT22;66564;42.482;25.548;2023-12-07T10:35:42;9.86;88.21
77467;DHT22;66564;42.482;25.548;2023-12-07T10:38:09;10.25;87.30
77467;DHT22;66564;42.482;25.548;2023-12-07T10:40:35;10.90;89.97
77467;DHT22;66564;42.482;25.548;2023-12-07T10:43:05;11.20;85.99
77467;DHT22;66564;42.482;25.548;2023-12-07T10:45:31;10.94;73.08
77467;DHT22;66564;42.482;25.548;2023-12-07T10:48:05;10.63;70.33
77467;DHT22;66564;42.482;25.548;2023-12-07T10:50:34;10.39;70.77
77467;DHT22;66564;42.482;25.548;2023-12-07T10:53:05;10.22;70.37
77467;DHT22;66564;42.482;25.548;2023-12-07T10:55:42;10.08;70.59
77467;DHT22;66564;42.482;25.548;2023-12-07T10:58:11;9.94;70.81
77467;DHT22;66564;42.482;25.548;2023-12-07T11:00:42;9.85;70.67
77467;DHT22;66564;42.482;25.548;2023-12-07T11:03:16;9.59;70.02
77467;DHT22;66564;42.482;25.548;2023-12-07T11:05:49;9.65;70.23
77467;DHT22;66564;42.482;25.548;2023-12-07T11:08:28;9.44;69.96
77467;DHT22;66564;42.482;25.548;2023-12-07T11:11:06;9.35;70.32
77467;DHT22;66564;42.482;25.548;2023-12-07T11:13:37;9.38;70.46
77467;DHT22;66564;42.482;25.548;2023-12-07T11:16:03;9.28;69.98
77467;DHT22;66564;42.482;25.548;2023-12-07T11:18:29;9.09;71.50
77467;DHT22;66564;42.482;25.548;2023-12-07T11:20:56;9.13;71.43
77467;DHT22;66564;42.482;25.548;2023-12-07T11:23:22;8.89;71.64
77467;DHT22;66564;42.482;25.548;2023-12-07T11:25:48;9.01;71.98
77467;DHT22;66564;42.482;25.548;2023-12-07T11:28:15;9.26;71.02
77467;DHT22;66564;42.482;25.548;2023-12-07T11:30:42;9.14;70.55
77467;DHT22;66564;42.482;25.548;2023-12-07T11:33:09;9.03;71.14
77467;DHT22;66564;42.482;25.548;2023-12-07T11:36:04;9.17;71.04
77467;DHT22;66564;42.482;25.548;2023-12-07T11:38:31;9.24;71.35
77467;DHT22;66564;42.482;25.548;2023-12-07T11:40:57;9.30;71.12
77467;DHT22;66564;42.482;25.548;2023-12-07T11:46:10;9.35;71.89
77467;DHT22;66564;42.482;25.548;2023-12-07T11:48:36;9.44;70.90
77467;DHT22;66564;42.482;25.548;2023-12-07T11:51:03;9.28;70.90
77467;DHT22;66564;42.482;25.548;2023-12-07T11:53:31;9.37;70.92
77467;DHT22;66564;42.482;25.548;2023-12-07T11:56:00;9.41;71.74
77467;DHT22;66564;42.482;25.548;2023-12-07T11:58:30;9.51;72.00
77467;DHT22;66564;42.482;25.548;2023-12-07T12:00:56;9.48;70.66
77467;DHT22;66564;42.482;25.548;2023-12-07T12:03:25;9.51;70.60
77467;DHT22;66564;42.482;25.548;2023-12-07T12:05:51;9.57;69.95
77467;DHT22;66564;42.482;25.548;2023-12-07T12:08:17;9.48;69.85
77467;DHT22;66564;42.482;25.548;2023-12-07T12:10:43;9.52;70.57
77467;DHT22;66564;42.482;25.548;2023-12-07T12:13:09;9.57;69.71
77467;DHT22;66564;42.482;25.548;2023-12-07T12:15:35;9.62;69.16
77467;DHT22;66564;42.482;25.548;2023-12-07T12:18:03;9.62;69.49
77467;DHT22;66564;42.482;25.548;2023-12-07T12:20:30;9.52;69.07
77467;DHT22;66564;42.482;25.548;2023-12-07T12:22:57;9.50;69.29
77467;DHT22;66564;42.482;25.548;2023-12-07T12:25:23;9.47;69.21
77467;DHT22;66564;42.482;25.548;2023-12-07T12:27:55;9.44;69.76
77467;DHT22;66564;42.482;25.548;2023-12-07T12:30:21;9.35;69.92
77467;DHT22;66564;42.482;25.548;2023-12-07T12:32:50;9.17;69.09
77467;DHT22;66564;42.482;25.548;2023-12-07T12:35:17;8.91;69.62
77467;DHT22;66564;42.482;25.548;2023-12-07T12:37:43;8.96;70.30
77467;DHT22;66564;42.482;25.548;2023-12-07T12:40:10;8.89;69.04
77467;DHT22;66564;42.482;25.548;2023-12-07T12:42:36;8.76;69.94
77467;DHT22;66564;42.482;25.548;2023-12-07T12:45:04;8.69;69.96
77467;DHT22;66564;42.482;25.548;2023-12-07T12:47:29;8.70;70.48
77467;DHT22;66564;42.482;25.548;2023-12-07T12:49:55;8.52;70.50
77467;DHT22;66564;42.482;25.548;2023-12-07T12:52:24;8.57;71.08
77467;DHT22;66564;42.482;25.548;2023-12-07T12:54:55;8.69;71.70
77467;DHT22;66564;42.482;25.548;2023-12-07T12:57:20;8.53;71.12
77467;DHT22;66564;42.482;25.548;2023-12-07T12:59:47;8.01;71.65
77467;DHT22;66564;42.482;25.548;2023-12-07T13:02:13;7.88;70.91
77467;DHT22;66564;42.482;25.548;2023-12-07T13:04:41;8.01;71.33
77467;DHT22;66564;42.482;25.548;2023-12-07T13:07:07;8.18;71.18
77467;DHT22;66564;42.482;25.548;2023-12-07T13:09:32;8.24;71.04
77467;DHT22;66564;42.482;25.548;2023-12-07T13:11:59;8.20;70.86
77467;DHT22;66564;42.482;25.548;2023-12-07T13:14:24;8.15;70.95
77467;DHT22;66564;42.482;25.548;2023-12-07T13:16:50;7.97;71.71
77467;DHT22;66564;42.482;25.548;2023-12-07T13:19:15;7.99;70.66
77467;DHT22;66564;42.482;25.548;2023-12-07T13:21:41;7.90;71.67
77467;DHT22;66564;42.482;25.548;2023-12-07T13:24:07;7.95;71.81
77467;DHT22;66564;42.482;25.548;2023-12-07T13:26:40;8.04;71.48
77467;DHT22;66564;42.482;25.548;2023-12-07T13:29:06;7.91;71.32
77467;DHT22;66564;42.482;25.548;2023-12-07T13:31:33;7.61;72.87
77467;DHT22;66564;42.482;25.548;2023-12-07T13:33:59;7.51;72.98
77467;DHT22;66564;42.482;25.548;2023-12-07T13:36:24;7.78;72.61
77467;DHT22;66564;42.482;25.548;2023-12-07T13:38:52;7.85;72.32
77467;DHT22;66564;42.482;25.548;2023-12-07T13:41:18;7.90;71.35
77467;DHT22;66564;42.482;25.548;2023-12-07T13:43:43;7.64;71.69
77467;DHT22;66564;42.482;25.548;2023-12-07T13:46:09;7.71;71.48
77467;DHT22;66564;42.482;25.548;2023-12-07T13:48:35;7.67;71.42
77467;DHT22;66564;42.482;25.548;2023-12-07T13:51:01;7.74;71.05
77467;DHT22;66564;42.482;25.548;2023-12-07T13:53:27;7.78;70.89
77467;DHT22;66564;42.482;25.548;2023-12-07T13:55:53;7.77;70.71
77467;DHT22;66564;42.482;25.548;2023-12-07T13:58:18;7.78;70.71
77467;DHT22;66564;42.482;25.548;2023-12-07T14:00:44;7.78;70.45
77467;DHT22;66564;42.482;25.548;2023-12-07T14:03:11;7.78;70.49
77467;DHT22;66564;42.482;25.548;2023-12-07T14:05:38;7.61;70.10
77467;DHT22;66564;42.482;25.548;2023-12-07T14:08:05;7.69;69.90
77467;DHT22;66564;42.482;25.548;2023-12-07T14:10:30;7.60;69.72
77467;DHT22;66564;42.482;25.548;2023-12-07T14:12:56;7.60;70.02
77467;DHT22;66564;42.482;25.548;2023-12-07T14:15:21;7.53;69.11
77467;DHT22;66564;42.482;25.548;2023-12-07T14:17:47;7.44;69.35
77467;DHT22;66564;42.482;25.548;2023-12-07T14:20:12;7.40;69.87
77467;DHT22;66564;42.482;25.548;2023-12-07T14:22:39;7.37;69.49
77467;DHT22;66564;42.482;25.548;2023-12-07T14:25:05;7.33;69.60
77467;DHT22;66564;42.482;25.548;2023-12-07T14:27:31;7.36;69.75
77467;DHT22;66564;42.482;25.548;2023-12-07T14:29:56;7.31;70.05
77467;DHT22;66564;42.482;25.548;2023-12-07T14:32:22;7.34;69.94
77467;DHT22;66564;42.482;25.548;2023-12-07T14:34:47;7.30;70.03
77467;DHT22;66564;42.482;25.548;2023-12-07T14:37:13;7.05;70.03
77467;DHT22;66564;42.482;25.548;2023-12-07T14:39:41;7.03;70.06
77467;DHT22;66564;42.482;25.548;2023-12-07T14:42:09;6.97;70.19
77467;DHT22;66564;42.482;25.548;2023-12-07T14:44:36;6.96;70.80
77467;DHT22;66564;42.482;25.548;2023-12-07T14:47:02;6.97;70.70
77467;DHT22;66564;42.482;25.548;2023-12-07T14:49:27;7.02;70.62
77467;DHT22;66564;42.482;25.548;2023-12-07T14:51:54;7.02;70.73
77467;DHT22;66564;42.482;25.548;2023-12-07T14:54:21;7.00;70.46
77467;DHT22;66564;42.482;25.548;2023-12-07T14:56:47;6.97;70.61
77467;DHT22;66564;42.482;25.548;2023-12-07T14:59:13;6.92;70.47
77467;DHT22;66564;42.482;25.548;2023-12-07T15:01:41;6.86;70.49
77467;DHT22;66564;42.482;25.548;2023-12-07T15:04:07;6.81;70.79
77467;DHT22;66564;42.482;25.548;2023-12-07T15:06:32;6.76;71.08
77467;DHT22;66564;42.482;25.548;2023-12-07T15:09:05;6.78;71.06
77467;DHT22;66564;42.482;25.548;2023-12-07T15:11:35;6.72;70.98
77467;DHT22;66564;42.482;25.548;2023-12-07T15:14:02;6.62;70.58
77467;DHT22;66564;42.482;25.548;2023-12-07T15:16:28;6.56;70.89
77467;DHT22;66564;42.482;25.548;2023-12-07T15:18:54;6.52;71.52
77467;DHT22;66564;42.482;25.548;2023-12-07T15:21:19;6.53;71.64
77467;DHT22;66564;42.482;25.548;2023-12-07T15:23:45;6.35;71.84
77467;DHT22;66564;42.482;25.548;2023-12-07T15:26:11;6.37;71.99
77467;DHT22;66564;42.482;25.548;2023-12-07T15:28:37;6.37;71.95
77467;DHT22;66564;42.482;25.548;2023-12-07T15:31:04;6.30;72.00
77467;DHT22;66564;42.482;25.548;2023-12-07T15:33:30;6.21;71.78